createdAt,value
2023-04-29T00:00:45.209Z,47
2023-04-29T00:03:17.211Z,47
2023-04-29T00:05:48.549Z,47
2023-04-29T00:08:19.151Z,46
2023-04-29T00:10:50.019Z,47
2023-04-29T00:13:20.740Z,46
2023-04-29T00:15:51.432Z,46
2023-04-29T00:18:22.737Z,46
2023-04-29T00:20:53.475Z,46
2023-04-29T00:23:24.549Z,46
2023-04-29T00:25:56.146Z,44
2023-04-29T00:28:27.790Z,44
2023-04-29T00:30:58.901Z,44
2023-04-29T00:33:29.434Z,44
2023-04-29T00:36:00.128Z,45
2023-04-29T00:38:31.628Z,44
2023-04-29T00:41:02.193Z,44
2023-04-29T00:43:33.088Z,44
2023-04-29T00:46:04.126Z,44
2023-04-29T00:48:34.846Z,44
2023-04-29T00:51:05.494Z,44
2023-04-29T00:53:36.464Z,43
2023-04-29T00:56:07.748Z,43
2023-04-29T00:58:38.056Z,43
2023-04-29T01:01:09.305Z,43
2023-04-29T01:03:40.831Z,43
2023-04-29T01:06:11.791Z,44
2023-04-29T01:08:41.920Z,43
2023-04-29T01:11:13.262Z,44
2023-04-29T01:13:44.530Z,43
2023-04-29T01:16:15.699Z,44
2023-04-29T01:18:46.516Z,44
2023-04-29T01:21:17.188Z,43
2023-04-29T01:23:48.128Z,44
2023-04-29T01:26:18.810Z,44
2023-04-29T01:28:49.469Z,43
2023-04-29T01:31:20.044Z,43
2023-04-29T01:33:50.851Z,43
2023-04-29T01:36:21.845Z,43
2023-04-29T01:38:52.802Z,43
2023-04-29T01:41:23.246Z,43
2023-04-29T01:43:54.419Z,43
2023-04-29T01:46:24.933Z,44
2023-04-29T01:48:55.999Z,43
2023-04-29T01:51:26.605Z,42
2023-04-29T01:53:57.282Z,42
2023-04-29T01:56:28.191Z,43
2023-04-29T01:58:57.373Z,43
2023-04-29T02:01:27.781Z,43
2023-04-29T02:03:58.199Z,44
2023-04-29T02:06:28.417Z,44
2023-04-29T02:08:59.124Z,44
2023-04-29T02:11:29.673Z,44
2023-04-29T02:14:00.318Z,44
2023-04-29T02:16:31.094Z,44
2023-04-29T02:19:01.878Z,44
2023-04-29T02:21:32.667Z,44
2023-04-29T02:24:03.323Z,44
2023-04-29T02:26:34.245Z,44
2023-04-29T02:29:04.767Z,43
2023-04-29T02:31:36.032Z,44
2023-04-29T02:34:06.955Z,44
2023-04-29T02:36:37.557Z,44
2023-04-29T02:39:08.325Z,44
2023-04-29T02:41:39.579Z,44
2023-04-29T02:44:10.249Z,46
2023-04-29T02:46:41.272Z,45
2023-04-29T02:49:12.302Z,44
2023-04-29T02:51:43.314Z,44
2023-04-29T02:54:13.617Z,44
2023-04-29T02:56:44.539Z,43
2023-04-29T02:59:15.512Z,43
2023-04-29T03:01:46.960Z,44
2023-04-29T03:04:18.173Z,44
2023-04-29T03:06:48.721Z,45
2023-04-29T03:09:19.807Z,45
2023-04-29T03:11:50.604Z,44
2023-04-29T03:14:21.527Z,44
2023-04-29T03:16:51.754Z,44
2023-04-29T03:19:22.860Z,43
2023-04-29T03:21:54.231Z,43
2023-04-29T03:24:24.825Z,44
2023-04-29T03:26:55.715Z,44
2023-04-29T03:29:26.847Z,43
2023-04-29T03:31:57.878Z,44
2023-04-29T03:34:28.417Z,44
2023-04-29T03:36:59.391Z,44
2023-04-29T03:39:30.863Z,43
2023-04-29T03:42:02.168Z,43
2023-04-29T03:44:33.675Z,44
2023-04-29T03:47:04.753Z,43
2023-04-29T03:49:35.456Z,44
2023-04-29T03:52:06.529Z,43
2023-04-29T03:54:37.462Z,44
2023-04-29T03:57:08.269Z,43
2023-04-29T03:59:39.326Z,44
2023-04-29T04:02:10.433Z,43
2023-04-29T04:04:41.793Z,44
2023-04-29T04:07:12.447Z,44
2023-04-29T04:09:43.173Z,44
2023-04-29T04:12:13.913Z,44
2023-04-29T04:14:44.310Z,44
2023-04-29T04:17:15.376Z,44
2023-04-29T04:19:46.436Z,43
2023-04-29T04:22:17.656Z,43
2023-04-29T04:24:49.022Z,44
2023-04-29T04:27:20.595Z,44
2023-04-29T04:29:51.043Z,44
2023-04-29T04:32:22.167Z,44
2023-04-29T04:34:52.803Z,44
2023-04-29T04:37:23.336Z,44
2023-04-29T04:39:54.638Z,45
2023-04-29T04:42:25.443Z,45
2023-04-29T04:44:56.771Z,45
2023-04-29T04:47:27.597Z,45
2023-04-29T04:49:57.933Z,45
2023-04-29T04:52:29.078Z,45
2023-04-29T04:54:59.982Z,45
2023-04-29T04:57:30.683Z,45
2023-04-29T05:00:02.086Z,45
2023-04-29T05:02:33.309Z,46
2023-04-29T05:05:04.046Z,46
2023-04-29T05:07:35.097Z,46
2023-04-29T05:10:05.753Z,46
2023-04-29T05:12:36.730Z,46
2023-04-29T05:15:07.853Z,46
2023-04-29T06:33:40.749Z,49
2023-04-29T06:36:20.667Z,49
2023-04-29T06:41:25.630Z,48
2023-04-29T06:44:05.315Z,48
2023-04-29T06:46:36.611Z,48
2023-04-29T06:49:07.845Z,47
2023-04-29T06:51:38.837Z,47
2023-04-29T06:54:15.213Z,46
2023-04-29T06:56:45.792Z,46
2023-04-29T06:59:18.428Z,46
2023-04-29T07:01:49.974Z,47
2023-04-29T07:04:18.789Z,47
2023-04-29T07:06:50.528Z,49
2023-04-29T07:09:21.612Z,47
2023-04-29T07:11:50.851Z,46
2023-04-29T07:14:21.608Z,46
2023-04-29T07:16:52.285Z,46
2023-04-29T07:19:23.817Z,46
2023-04-29T07:21:54.199Z,45
2023-04-29T07:24:24.825Z,45
2023-04-29T07:26:55.729Z,45
2023-04-29T07:29:26.102Z,44
2023-04-29T07:31:54.896Z,44
2023-04-29T07:34:28.417Z,44
2023-04-29T07:36:58.571Z,43
2023-04-29T07:39:28.618Z,43
2023-04-29T07:42:00.010Z,44
2023-04-29T07:44:30.453Z,44
2023-04-29T07:47:00.951Z,43
2023-04-29T07:49:32.767Z,43
2023-04-29T07:52:04.476Z,43
2023-04-29T07:54:35.125Z,42
2023-04-29T07:57:05.970Z,42
2023-04-29T07:59:38.762Z,43
2023-04-29T08:02:08.948Z,43
2023-04-29T08:04:41.960Z,42
2023-04-29T08:07:12.176Z,42
2023-04-29T08:09:43.769Z,42
2023-04-29T08:12:12.891Z,42
2023-04-29T08:14:44.660Z,42
2023-04-29T08:17:15.576Z,43
2023-04-29T08:19:46.157Z,42
2023-04-29T08:22:16.508Z,42
2023-04-29T08:24:48.072Z,42
2023-04-29T08:27:18.769Z,42
2023-04-29T08:29:49.296Z,43
2023-04-29T08:32:19.934Z,43
2023-04-29T08:34:52.073Z,42
2023-04-29T08:37:22.148Z,42
2023-04-29T08:39:53.198Z,42
2023-04-29T08:42:23.711Z,42
2023-04-29T08:44:54.339Z,42
2023-04-29T08:47:25.859Z,41
2023-04-29T08:49:56.275Z,40
2023-04-29T08:52:28.948Z,40
2023-04-29T08:54:59.843Z,41
2023-04-29T08:57:29.366Z,40
2023-04-29T09:00:00.887Z,40
2023-04-29T09:02:31.600Z,39
2023-04-29T09:05:02.377Z,39
2023-04-29T09:07:32.892Z,39
2023-04-29T09:10:01.888Z,39
2023-04-29T09:12:33.228Z,39
2023-04-29T09:15:07.913Z,39
2023-04-29T09:17:40.612Z,39
2023-04-29T09:20:12.882Z,40
2023-04-29T09:22:44.489Z,39
2023-04-29T09:25:14.976Z,39
2023-04-29T09:27:45.382Z,39
2023-04-29T09:30:15.814Z,38
2023-04-29T09:32:45.040Z,39
2023-04-29T09:35:16.543Z,40
2023-04-29T09:37:47.309Z,39
2023-04-29T09:40:18.268Z,39
2023-04-29T09:42:50.320Z,39
2023-04-29T09:45:21.205Z,39
2023-04-29T09:47:53.184Z,39
2023-04-29T09:50:24.107Z,38
2023-04-29T09:52:55.100Z,38
2023-04-29T09:55:26.217Z,38
2023-04-29T09:57:55.197Z,37
2023-04-29T10:00:26.157Z,37
2023-04-29T10:02:56.490Z,37
2023-04-29T10:05:28.358Z,36
2023-04-29T10:07:57.989Z,37
2023-04-29T10:10:29.999Z,37
2023-04-29T10:12:58.804Z,36
2023-04-29T10:15:29.645Z,36
2023-04-29T10:18:00.313Z,35
2023-04-29T10:20:34.764Z,35
2023-04-29T10:23:09.605Z,36
2023-04-29T10:25:40.432Z,36
2023-04-29T10:28:09.096Z,36
2023-04-29T10:30:39.850Z,36
2023-04-29T10:33:11.379Z,37
2023-04-29T10:35:41.482Z,36
2023-04-29T10:38:12.134Z,36
2023-04-29T10:40:42.534Z,36
2023-04-29T10:43:13.256Z,36
2023-04-29T10:45:44.115Z,36
2023-04-29T10:48:16.193Z,36
2023-04-29T10:50:46.872Z,36
2023-04-29T10:53:19.689Z,37
2023-04-29T10:55:50.414Z,35
2023-04-29T10:58:20.986Z,36
2023-04-29T11:00:51.616Z,36
2023-04-29T11:03:24.074Z,35
2023-04-29T11:05:55.984Z,37
2023-04-29T11:08:27.185Z,35
2023-04-29T11:10:57.828Z,36
2023-04-29T11:13:28.552Z,37
2023-04-29T11:15:58.957Z,35
2023-04-29T11:18:29.803Z,37
2023-04-29T11:21:00.382Z,36
2023-04-29T11:23:33.002Z,35
2023-04-29T11:26:04.665Z,35
2023-04-29T11:28:35.116Z,35
2023-04-29T11:31:05.684Z,36
2023-04-29T11:33:35.975Z,36
2023-04-29T11:36:06.355Z,36
2023-04-29T11:38:43.827Z,35
2023-04-29T11:41:13.964Z,34
2023-04-29T11:43:44.935Z,35
2023-04-29T11:46:15.872Z,35
2023-04-29T11:48:46.175Z,33
2023-04-29T11:51:15.482Z,35
2023-04-29T11:53:46.283Z,35
2023-04-29T11:56:16.571Z,34
2023-04-29T11:58:47.343Z,33
2023-04-29T12:01:17.729Z,31
2023-04-29T12:03:48.385Z,33
2023-04-29T12:06:19.280Z,34
2023-04-29T12:08:49.717Z,35
2023-04-29T12:11:21.938Z,34
2023-04-29T12:13:52.949Z,34
2023-04-29T12:16:23.315Z,34
2023-04-29T12:18:54.807Z,34
2023-04-29T12:21:26.385Z,33
2023-04-29T12:23:57.236Z,34
2023-04-29T12:26:28.751Z,32
2023-04-29T12:28:59.238Z,34
2023-04-29T12:31:30.038Z,35
2023-04-29T12:34:02.655Z,34
2023-04-29T12:36:41.981Z,34
2023-04-29T12:39:12.734Z,32
2023-04-29T12:41:44.149Z,33
2023-04-29T12:44:13.857Z,33
2023-04-29T12:46:44.677Z,33
2023-04-29T12:49:14.394Z,32
2023-04-29T12:51:45.928Z,34
2023-04-29T12:54:17.645Z,33
2023-04-29T12:56:49.219Z,32
2023-04-29T12:59:18.727Z,33
2023-04-29T13:01:49.927Z,32
2023-04-29T13:04:19.979Z,31
2023-04-29T13:06:51.656Z,32
2023-04-29T13:09:25.691Z,31
2023-04-29T13:11:56.321Z,32
2023-04-29T13:14:28.486Z,31
2023-04-29T13:17:01.109Z,31
2023-04-29T13:19:43.939Z,32
2023-04-29T13:22:02.523Z,31
2023-04-29T13:24:32.923Z,31
2023-04-29T13:27:03.556Z,31
2023-04-29T13:29:34.271Z,32
2023-04-29T13:32:06.258Z,31
2023-04-29T13:34:36.941Z,31
2023-04-29T13:37:07.603Z,32
2023-04-29T13:39:39.705Z,32
2023-04-29T13:42:11.040Z,32
2023-04-29T13:47:11.545Z,32
2023-04-29T13:50:16.499Z,33
2023-04-29T13:59:52.925Z,33
2023-04-29T14:02:25.314Z,34
2023-04-29T14:04:53.516Z,34
2023-04-29T14:07:23.782Z,33
2023-04-29T14:09:54.280Z,34
2023-04-29T14:12:23.252Z,34
2023-04-29T14:14:54.821Z,33
2023-04-29T14:17:25.341Z,33
2023-04-29T14:19:56.809Z,34
2023-04-29T14:22:27.838Z,34
2023-04-29T14:24:58.459Z,35
2023-04-29T14:27:29.189Z,34
2023-04-29T14:30:00.051Z,33
2023-04-29T14:32:33.934Z,33
2023-04-29T14:35:04.224Z,35
2023-04-29T14:37:34.750Z,35
2023-04-29T14:40:05.828Z,34
2023-04-29T14:42:45.035Z,34
2023-04-29T14:45:13.498Z,35
2023-04-29T14:47:43.564Z,35
2023-04-29T14:50:13.700Z,35
2023-04-29T14:52:44.297Z,35
2023-04-29T14:55:15.263Z,35
2023-04-29T14:57:45.405Z,36
2023-04-29T15:00:15.458Z,35
2023-04-29T15:02:46.296Z,35
2023-04-29T15:05:17.433Z,36
2023-04-29T15:07:51.145Z,35
2023-04-29T15:10:23.676Z,36
2023-04-29T15:12:53.587Z,36
2023-04-29T15:15:24.458Z,36
2023-04-29T15:17:56.598Z,36
2023-04-29T15:20:25.684Z,36
2023-04-29T15:22:57.528Z,36
2023-04-29T15:25:33.091Z,36
2023-04-29T15:28:03.878Z,36
2023-04-29T15:30:35.552Z,36
2023-04-29T15:33:06.385Z,37
2023-04-29T15:35:36.345Z,36
2023-04-29T15:38:08.092Z,37
2023-04-29T15:40:38.729Z,37
2023-04-29T15:43:11.211Z,37
2023-04-29T15:45:42.146Z,37
2023-04-29T15:48:12.788Z,37
2023-04-29T15:50:47.066Z,37
2023-04-29T15:53:16.413Z,36
2023-04-29T15:55:47.096Z,37
2023-04-29T15:58:16.190Z,37
2023-04-29T16:00:46.912Z,37
2023-04-29T16:03:17.618Z,38
2023-04-29T16:05:47.923Z,37
2023-04-29T16:08:20.406Z,37
2023-04-29T16:10:50.811Z,37
2023-04-29T16:13:21.482Z,37
2023-04-29T16:15:52.477Z,37
2023-04-29T16:18:22.904Z,38
2023-04-29T16:20:53.462Z,37
2023-04-29T16:23:23.826Z,38
2023-04-29T16:25:54.535Z,38
2023-04-29T16:28:25.924Z,37
2023-04-29T16:30:58.788Z,38
2023-04-29T16:33:29.474Z,38
2023-04-29T16:36:04.377Z,38
2023-04-29T16:38:35.203Z,38
2023-04-29T16:41:06.554Z,38
2023-04-29T16:46:34.198Z,38
2023-04-29T16:49:04.559Z,38
2023-04-29T16:51:34.508Z,38
2023-04-29T16:54:04.977Z,38
2023-04-29T16:56:35.136Z,39
2023-04-29T16:59:07.313Z,39
2023-04-29T17:01:38.042Z,39
2023-04-29T17:04:08.670Z,39
2023-04-29T17:06:39.272Z,39
2023-04-29T17:09:09.836Z,38
2023-04-29T17:11:40.926Z,39
2023-04-29T17:14:11.219Z,39
2023-04-29T17:16:41.886Z,39
2023-04-29T17:19:13.391Z,40
2023-04-29T17:21:47.639Z,39
2023-04-29T17:24:19.533Z,40
2023-04-29T17:26:50.242Z,40
2023-04-29T17:29:21.742Z,40
2023-04-29T17:31:52.649Z,40
2023-04-29T17:34:21.825Z,41
2023-04-29T17:36:52.438Z,41
2023-04-29T17:39:21.347Z,41
2023-04-29T17:41:53.200Z,41
2023-04-29T17:44:24.767Z,41
2023-04-29T17:46:57.962Z,41
2023-04-29T17:49:30.682Z,41
2023-04-29T17:52:01.474Z,42
2023-04-29T17:54:32.371Z,41
2023-04-29T17:57:07.879Z,41
2023-04-29T17:59:39.294Z,42
2023-04-29T18:02:10.194Z,41
2023-04-29T18:04:43.721Z,41
2023-04-29T18:07:14.597Z,42
2023-04-29T18:09:44.853Z,42
2023-04-29T18:12:15.452Z,42
2023-04-29T18:14:45.886Z,42
2023-04-29T18:17:16.366Z,42
2023-04-29T18:19:50.791Z,42
2023-04-29T18:22:21.220Z,42
2023-04-29T18:24:52.731Z,42
2023-04-29T18:27:24.955Z,42
2023-04-29T18:29:55.880Z,42
2023-04-29T18:32:26.325Z,42
2023-04-29T18:34:57.048Z,43
2023-04-29T18:37:27.745Z,43
2023-04-29T18:39:59.587Z,43
2023-04-29T18:42:32.738Z,44
2023-04-29T18:45:03.247Z,43
2023-04-29T18:47:33.913Z,44
2023-04-29T18:50:05.672Z,44
2023-04-29T18:52:36.204Z,44
2023-04-29T18:55:06.759Z,44
2023-04-29T18:57:37.541Z,44
2023-04-29T19:00:08.624Z,45
2023-04-29T19:02:39.936Z,44
2023-04-29T19:05:09.269Z,45
2023-04-29T19:07:39.856Z,44
2023-04-29T19:10:13.219Z,44
2023-04-29T19:12:43.971Z,45
2023-04-29T19:15:14.476Z,45
2023-04-29T19:17:44.937Z,45
2023-04-29T19:20:16.284Z,45
2023-04-29T19:22:45.611Z,45
2023-04-29T19:25:17.680Z,46
2023-04-29T19:27:52.473Z,46
2023-04-29T19:30:22.981Z,45
2023-04-29T19:32:53.448Z,45
2023-04-29T19:35:23.781Z,44
2023-04-29T19:38:03.698Z,45
2023-04-29T19:40:42.841Z,45
2023-04-29T19:43:12.964Z,45
2023-04-29T19:45:43.453Z,45
2023-04-29T19:49:52.835Z,45
2023-04-29T19:52:25.207Z,46
2023-04-29T19:57:52.322Z,47
2023-04-29T20:16:20.473Z,48
2023-04-29T20:18:51.920Z,48
2023-04-29T20:21:22.318Z,48
2023-04-29T20:23:52.572Z,49
2023-04-29T20:29:01.042Z,50
2023-04-29T20:31:32.237Z,51
2023-04-29T20:34:02.657Z,52
2023-04-29T20:36:33.422Z,52
2023-04-29T20:39:04.087Z,52
2023-04-29T20:41:34.999Z,53
2023-04-29T20:44:05.628Z,53
2023-04-29T20:46:36.177Z,52
2023-04-29T20:49:06.969Z,53
2023-04-29T20:51:37.736Z,53
2023-04-29T20:54:08.649Z,53
2023-04-29T20:56:39.332Z,54
2023-04-29T20:59:09.839Z,53
2023-04-29T21:01:39.302Z,54
2023-04-29T21:04:09.467Z,54
2023-04-29T21:06:40.893Z,54
2023-04-29T21:09:11.443Z,54
2023-04-29T21:11:44.433Z,54
2023-04-29T21:14:19.913Z,54
2023-04-29T21:16:52.302Z,54
2023-04-29T21:19:35.884Z,54
2023-04-29T21:22:06.964Z,54
2023-04-29T21:24:39.058Z,54
2023-04-29T21:27:08.058Z,54
2023-04-29T21:29:38.339Z,54
2023-04-29T21:32:10.208Z,54
2023-04-29T21:34:40.742Z,54
2023-04-29T21:37:11.639Z,54
2023-04-29T21:39:42.550Z,55
2023-04-29T21:42:12.692Z,54
2023-04-29T21:47:29.258Z,55
2023-04-29T21:49:59.877Z,55
2023-04-29T21:52:32.890Z,55
2023-04-29T21:55:07.705Z,56
2023-04-29T21:57:43.974Z,56
2023-04-29T22:00:06.650Z,56
2023-04-29T22:02:37.702Z,56
2023-04-29T22:05:08.095Z,57
2023-04-29T22:07:38.854Z,57
2023-04-29T22:10:09.462Z,57
2023-04-29T22:12:41.439Z,57
2023-04-29T22:15:20.920Z,58
2023-04-29T22:17:42.994Z,57
2023-04-29T22:20:13.641Z,58
2023-04-29T22:22:44.146Z,58
2023-04-29T22:25:15.116Z,57
2023-04-29T22:27:46.433Z,58
2023-04-29T22:30:17.505Z,58
2023-04-29T22:32:49.847Z,57
2023-04-29T22:35:25.929Z,57
2023-04-29T22:37:56.971Z,57
2023-04-29T22:46:06.582Z,57
2023-04-29T22:48:37.484Z,57
2023-04-29T22:51:08.404Z,58
2023-04-29T22:53:39.190Z,58
2023-04-29T22:56:09.886Z,58
2023-04-29T22:58:40.933Z,58
2023-04-29T23:01:12.213Z,58
2023-04-29T23:03:43.409Z,59
2023-04-29T23:06:14.450Z,58
2023-04-29T23:08:44.824Z,59
2023-04-29T23:11:16.020Z,59
2023-04-29T23:13:46.505Z,60
2023-04-29T23:16:17.848Z,60
2023-04-29T23:18:54.338Z,60
2023-04-29T23:21:26.188Z,60
2023-04-29T23:23:57.425Z,60
2023-04-29T23:26:28.055Z,61
2023-04-29T23:28:59.536Z,60
2023-04-29T23:31:30.551Z,60
2023-04-29T23:34:02.293Z,61
2023-04-29T23:36:33.060Z,60
2023-04-29T23:39:03.923Z,60
2023-04-29T23:41:34.883Z,61
2023-04-29T23:44:05.289Z,61
2023-04-29T23:46:34.318Z,61
2023-04-29T23:49:04.753Z,61
2023-04-29T23:51:34.061Z,61
2023-04-29T23:54:04.989Z,62
2023-04-29T23:56:41.422Z,61
2023-04-29T23:59:12.482Z,61
